sensor_id;sensor_type;location;lat;lon;timestamp;P1;durP1;ratioP1;P2;durP2;ratioP2
9034;SDS011;4552;43.422;24.592;2022-09-09T00:00:40;4.33;;;3.93;;
9034;SDS011;4552;43.422;24.592;2022-09-09T00:03:14;4.13;;;3.60;;
9034;SDS011;4552;43.422;24.592;2022-09-09T00:05:47;3.73;;;3.43;;
9034;SDS011;4552;43.422;24.592;2022-09-09T00:08:24;3.70;;;3.40;;
9034;SDS011;4552;43.422;24.592;2022-09-09T00:10:59;4.40;;;3.40;;
9034;SDS011;4552;43.422;24.592;2022-09-09T00:13:32;4.37;;;3.60;;
9034;SDS011;4552;43.422;24.592;2022-09-09T00:16:04;4.15;;;3.80;;
9034;SDS011;4552;43.422;24.592;2022-09-09T00:18:45;4.33;;;3.93;;
9034;SDS011;4552;43.422;24.592;2022-09-09T00:21:19;3.83;;;3.50;;
9034;SDS011;4552;43.422;24.592;2022-09-09T00:23:50;5.87;;;3.93;;
9034;SDS011;4552;43.422;24.592;2022-09-09T00:26:21;4.10;;;3.80;;
9034;SDS011;4552;43.422;24.592;2022-09-09T00:29:09;5.17;;;4.20;;
9034;SDS011;4552;43.422;24.592;2022-09-09T00:31:48;4.63;;;3.83;;
9034;SDS011;4552;43.422;24.592;2022-09-09T00:34:18;4.30;;;3.90;;
9034;SDS011;4552;43.422;24.592;2022-09-09T00:36:48;5.10;;;4.40;;
9034;SDS011;4552;43.422;24.592;2022-09-09T00:39:23;5.33;;;4.20;;
9034;SDS011;4552;43.422;24.592;2022-09-09T00:41:59;4.50;;;4.10;;
9034;SDS011;4552;43.422;24.592;2022-09-09T00:44:43;4.50;;;4.10;;
9034;SDS011;4552;43.422;24.592;2022-09-09T00:47:23;4.20;;;3.80;;
9034;SDS011;4552;43.422;24.592;2022-09-09T00:50:09;4.20;;;3.83;;
9034;SDS011;4552;43.422;24.592;2022-09-09T00:52:59;4.30;;;3.90;;
9034;SDS011;4552;43.422;24.592;2022-09-09T00:55:38;4.63;;;4.23;;
9034;SDS011;4552;43.422;24.592;2022-09-09T00:58:13;5.53;;;4.03;;
9034;SDS011;4552;43.422;24.592;2022-09-09T01:00:44;4.60;;;4.00;;
9034;SDS011;4552;43.422;24.592;2022-09-09T01:03:18;5.13;;;3.67;;
9034;SDS011;4552;43.422;24.592;2022-09-09T01:05:53;4.37;;;3.97;;
9034;SDS011;4552;43.422;24.592;2022-09-09T01:08:40;4.80;;;4.40;;
9034;SDS011;4552;43.422;24.592;2022-09-09T01:11:21;4.97;;;4.53;;
9034;SDS011;4552;43.422;24.592;2022-09-09T01:13:55;6.37;;;4.47;;
9034;SDS011;4552;43.422;24.592;2022-09-09T01:16:29;5.73;;;4.43;;
9034;SDS011;4552;43.422;24.592;2022-09-09T01:19:01;4.63;;;4.20;;
9034;SDS011;4552;43.422;24.592;2022-09-09T01:21:34;4.63;;;4.17;;
9034;SDS011;4552;43.422;24.592;2022-09-09T01:24:14;5.20;;;4.23;;
9034;SDS011;4552;43.422;24.592;2022-09-09T01:26:50;5.47;;;4.67;;
9034;SDS011;4552;43.422;24.592;2022-09-09T01:29:21;4.90;;;4.40;;
9034;SDS011;4552;43.422;24.592;2022-09-09T01:31:53;6.10;;;4.40;;
9034;SDS011;4552;43.422;24.592;2022-09-09T01:34:22;5.13;;;4.60;;
9034;SDS011;4552;43.422;24.592;2022-09-09T01:36:53;4.50;;;4.10;;
9034;SDS011;4552;43.422;24.592;2022-09-09T01:39:24;4.63;;;4.10;;
9034;SDS011;4552;43.422;24.592;2022-09-09T01:41:54;5.20;;;4.10;;
9034;SDS011;4552;43.422;24.592;2022-09-09T01:44:23;4.40;;;4.00;;
9034;SDS011;4552;43.422;24.592;2022-09-09T01:46:52;5.17;;;4.03;;
9034;SDS011;4552;43.422;24.592;2022-09-09T01:49:19;5.47;;;4.93;;
9034;SDS011;4552;43.422;24.592;2022-09-09T01:51:47;7.40;;;5.47;;
9034;SDS011;4552;43.422;24.592;2022-09-09T01:54:17;6.43;;;4.70;;
9034;SDS011;4552;43.422;24.592;2022-09-09T01:56:47;4.80;;;4.27;;
9034;SDS011;4552;43.422;24.592;2022-09-09T01:59:27;5.57;;;5.00;;
9034;SDS011;4552;43.422;24.592;2022-09-09T02:02:09;4.30;;;3.90;;
9034;SDS011;4552;43.422;24.592;2022-09-09T02:04:39;5.53;;;5.03;;
9034;SDS011;4552;43.422;24.592;2022-09-09T02:07:11;4.57;;;4.17;;
9034;SDS011;4552;43.422;24.592;2022-09-09T02:09:49;4.77;;;4.30;;
9034;SDS011;4552;43.422;24.592;2022-09-09T02:12:23;4.50;;;4.10;;
9034;SDS011;4552;43.422;24.592;2022-09-09T02:14:58;5.07;;;4.57;;
9034;SDS011;4552;43.422;24.592;2022-09-09T02:17:29;4.50;;;4.10;;
9034;SDS011;4552;43.422;24.592;2022-09-09T02:20:00;4.53;;;4.13;;
9034;SDS011;4552;43.422;24.592;2022-09-09T02:22:32;4.60;;;4.20;;
9034;SDS011;4552;43.422;24.592;2022-09-09T02:25:01;4.30;;;3.90;;
9034;SDS011;4552;43.422;24.592;2022-09-09T02:27:32;5.00;;;4.57;;
9034;SDS011;4552;43.422;24.592;2022-09-09T02:30:01;5.10;;;4.53;;
9034;SDS011;4552;43.422;24.592;2022-09-09T02:32:30;5.53;;;4.60;;
9034;SDS011;4552;43.422;24.592;2022-09-09T02:35:02;5.27;;;4.77;;
9034;SDS011;4552;43.422;24.592;2022-09-09T02:37:34;6.83;;;4.53;;
9034;SDS011;4552;43.422;24.592;2022-09-09T02:40:04;4.93;;;4.43;;
9034;SDS011;4552;43.422;24.592;2022-09-09T02:42:37;5.33;;;4.83;;
9034;SDS011;4552;43.422;24.592;2022-09-09T02:45:09;4.67;;;4.27;;
9034;SDS011;4552;43.422;24.592;2022-09-09T02:47:44;5.13;;;4.50;;
9034;SDS011;4552;43.422;24.592;2022-09-09T02:50:17;6.57;;;5.03;;
9034;SDS011;4552;43.422;24.592;2022-09-09T02:52:55;5.88;;;4.72;;
9034;SDS011;4552;43.422;24.592;2022-09-09T02:55:37;5.97;;;4.40;;
9034;SDS011;4552;43.422;24.592;2022-09-09T02:58:08;5.23;;;4.57;;
9034;SDS011;4552;43.422;24.592;2022-09-09T03:00:42;4.77;;;4.37;;
9034;SDS011;4552;43.422;24.592;2022-09-09T03:03:11;4.97;;;4.53;;
9034;SDS011;4552;43.422;24.592;2022-09-09T03:05:38;5.20;;;4.33;;
9034;SDS011;4552;43.422;24.592;2022-09-09T03:08:05;5.30;;;4.80;;
9034;SDS011;4552;43.422;24.592;2022-09-09T03:10:42;6.20;;;4.50;;
9034;SDS011;4552;43.422;24.592;2022-09-09T03:13:09;6.73;;;5.80;;
9034;SDS011;4552;43.422;24.592;2022-09-09T03:15:41;6.55;;;5.30;;
9034;SDS011;4552;43.422;24.592;2022-09-09T03:18:09;5.00;;;4.50;;
9034;SDS011;4552;43.422;24.592;2022-09-09T03:20:36;6.17;;;4.70;;
9034;SDS011;4552;43.422;24.592;2022-09-09T03:23:04;5.03;;;4.63;;
9034;SDS011;4552;43.422;24.592;2022-09-09T03:25:34;5.17;;;4.37;;
9034;SDS011;4552;43.422;24.592;2022-09-09T03:28:13;5.87;;;4.60;;
9034;SDS011;4552;43.422;24.592;2022-09-09T03:33:35;4.97;;;4.47;;
9034;SDS011;4552;43.422;24.592;2022-09-09T03:36:03;7.20;;;4.37;;
9034;SDS011;4552;43.422;24.592;2022-09-09T03:38:30;4.83;;;4.30;;
9034;SDS011;4552;43.422;24.592;2022-09-09T03:40:57;4.70;;;4.20;;
9034;SDS011;4552;43.422;24.592;2022-09-09T03:43:26;7.37;;;6.53;;
9034;SDS011;4552;43.422;24.592;2022-09-09T03:45:57;5.27;;;4.77;;
9034;SDS011;4552;43.422;24.592;2022-09-09T03:48:29;8.90;;;7.07;;
9034;SDS011;4552;43.422;24.592;2022-09-09T03:50:57;6.17;;;4.87;;
9034;SDS011;4552;43.422;24.592;2022-09-09T03:53:26;7.37;;;4.53;;
9034;SDS011;4552;43.422;24.592;2022-09-09T03:55:56;4.80;;;4.30;;
9034;SDS011;4552;43.422;24.592;2022-09-09T03:58:25;5.33;;;4.60;;
9034;SDS011;4552;43.422;24.592;2022-09-09T04:00:53;5.30;;;4.70;;
9034;SDS011;4552;43.422;24.592;2022-09-09T04:03:22;5.23;;;4.67;;
9034;SDS011;4552;43.422;24.592;2022-09-09T04:06:00;5.33;;;4.63;;
9034;SDS011;4552;43.422;24.592;2022-09-09T04:08:32;5.17;;;4.53;;
9034;SDS011;4552;43.422;24.592;2022-09-09T04:11:00;4.57;;;4.10;;
9034;SDS011;4552;43.422;24.592;2022-09-09T04:13:33;5.23;;;4.40;;
9034;SDS011;4552;43.422;24.592;2022-09-09T04:16:01;7.00;;;4.90;;
9034;SDS011;4552;43.422;24.592;2022-09-09T04:18:29;5.87;;;4.70;;
9034;SDS011;4552;43.422;24.592;2022-09-09T04:20:58;6.00;;;4.57;;
9034;SDS011;4552;43.422;24.592;2022-09-09T04:23:27;4.93;;;4.40;;
9034;SDS011;4552;43.422;24.592;2022-09-09T04:25:57;4.67;;;4.20;;
9034;SDS011;4552;43.422;24.592;2022-09-09T04:28:25;5.53;;;4.40;;
9034;SDS011;4552;43.422;24.592;2022-09-09T04:30:53;4.57;;;4.17;;
9034;SDS011;4552;43.422;24.592;2022-09-09T04:33:23;5.83;;;5.00;;
9034;SDS011;4552;43.422;24.592;2022-09-09T04:35:52;6.97;;;5.47;;
9034;SDS011;4552;43.422;24.592;2022-09-09T04:41:06;5.97;;;5.37;;
9034;SDS011;4552;43.422;24.592;2022-09-09T04:43:36;6.73;;;5.50;;
9034;SDS011;4552;43.422;24.592;2022-09-09T04:46:04;7.63;;;5.07;;
9034;SDS011;4552;43.422;24.592;2022-09-09T04:48:31;5.80;;;5.23;;
9034;SDS011;4552;43.422;24.592;2022-09-09T04:50:59;7.30;;;5.13;;
9034;SDS011;4552;43.422;24.592;2022-09-09T04:53:28;5.67;;;4.53;;
9034;SDS011;4552;43.422;24.592;2022-09-09T04:56:03;4.63;;;4.13;;
9034;SDS011;4552;43.422;24.592;2022-09-09T04:58:31;6.27;;;4.93;;
9034;SDS011;4552;43.422;24.592;2022-09-09T05:01:05;7.60;;;5.70;;
9034;SDS011;4552;43.422;24.592;2022-09-09T05:03:33;5.97;;;5.03;;
9034;SDS011;4552;43.422;24.592;2022-09-09T05:06:05;5.47;;;4.57;;
9034;SDS011;4552;43.422;24.592;2022-09-09T05:08:33;6.87;;;5.03;;
9034;SDS011;4552;43.422;24.592;2022-09-09T05:11:02;5.90;;;5.07;;
9034;SDS011;4552;43.422;24.592;2022-09-09T05:13:30;6.87;;;5.53;;
9034;SDS011;4552;43.422;24.592;2022-09-09T05:15:58;6.33;;;4.90;;
9034;SDS011;4552;43.422;24.592;2022-09-09T05:18:26;6.67;;;5.13;;
9034;SDS011;4552;43.422;24.592;2022-09-09T05:20:59;8.27;;;5.50;;
9034;SDS011;4552;43.422;24.592;2022-09-09T05:23:27;9.03;;;5.80;;
9034;SDS011;4552;43.422;24.592;2022-09-09T05:25:55;8.67;;;5.57;;
9034;SDS011;4552;43.422;24.592;2022-09-09T05:28:25;12.50;;;5.53;;
9034;SDS011;4552;43.422;24.592;2022-09-09T05:30:56;9.43;;;6.90;;
9034;SDS011;4552;43.422;24.592;2022-09-09T05:33:25;7.10;;;5.50;;
9034;SDS011;4552;43.422;24.592;2022-09-09T05:35:56;10.50;;;6.03;;
9034;SDS011;4552;43.422;24.592;2022-09-09T05:38:24;14.70;;;6.80;;
9034;SDS011;4552;43.422;24.592;2022-09-09T05:40:51;11.00;;;6.00;;
9034;SDS011;4552;43.422;24.592;2022-09-09T05:43:19;8.40;;;5.37;;
9034;SDS011;4552;43.422;24.592;2022-09-09T05:45:48;5.70;;;5.00;;
9034;SDS011;4552;43.422;24.592;2022-09-09T05:48:16;6.50;;;4.97;;
9034;SDS011;4552;43.422;24.592;2022-09-09T05:50:54;7.47;;;4.77;;
9034;SDS011;4552;43.422;24.592;2022-09-09T05:53:21;10.40;;;5.03;;
9034;SDS011;4552;43.422;24.592;2022-09-09T05:55:48;7.10;;;5.77;;
9034;SDS011;4552;43.422;24.592;2022-09-09T05:58:15;7.70;;;5.20;;
9034;SDS011;4552;43.422;24.592;2022-09-09T06:00:43;8.53;;;4.93;;
9034;SDS011;4552;43.422;24.592;2022-09-09T06:03:12;5.20;;;4.47;;
9034;SDS011;4552;43.422;24.592;2022-09-09T06:05:39;5.10;;;4.10;;
9034;SDS011;4552;43.422;24.592;2022-09-09T06:08:06;5.70;;;4.87;;
9034;SDS011;4552;43.422;24.592;2022-09-09T06:10:33;8.37;;;5.27;;
9034;SDS011;4552;43.422;24.592;2022-09-09T06:13:01;7.07;;;4.60;;
9034;SDS011;4552;43.422;24.592;2022-09-09T06:15:29;9.17;;;4.20;;
9034;SDS011;4552;43.422;24.592;2022-09-09T06:17:57;8.30;;;4.50;;
9034;SDS011;4552;43.422;24.592;2022-09-09T06:20:25;4.97;;;3.90;;
9034;SDS011;4552;43.422;24.592;2022-09-09T06:22:55;6.27;;;4.27;;
9034;SDS011;4552;43.422;24.592;2022-09-09T06:25:22;4.73;;;4.10;;
9034;SDS011;4552;43.422;24.592;2022-09-09T06:27:50;5.60;;;3.83;;
9034;SDS011;4552;43.422;24.592;2022-09-09T06:30:18;7.73;;;3.87;;
9034;SDS011;4552;43.422;24.592;2022-09-09T06:32:45;7.40;;;5.03;;
9034;SDS011;4552;43.422;24.592;2022-09-09T06:35:12;9.20;;;4.60;;
9034;SDS011;4552;43.422;24.592;2022-09-09T06:37:44;7.37;;;4.00;;
9034;SDS011;4552;43.422;24.592;2022-09-09T06:40:13;5.03;;;3.73;;
9034;SDS011;4552;43.422;24.592;2022-09-09T06:42:42;6.03;;;3.37;;
9034;SDS011;4552;43.422;24.592;2022-09-09T06:45:09;4.17;;;3.30;;
9034;SDS011;4552;43.422;24.592;2022-09-09T06:47:40;4.77;;;3.70;;
9034;SDS011;4552;43.422;24.592;2022-09-09T06:50:07;6.40;;;3.57;;
9034;SDS011;4552;43.422;24.592;2022-09-09T06:52:35;3.40;;;3.07;;
9034;SDS011;4552;43.422;24.592;2022-09-09T06:55:04;8.47;;;2.77;;
9034;SDS011;4552;43.422;24.592;2022-09-09T06:57:32;2.83;;;2.60;;
9034;SDS011;4552;43.422;24.592;2022-09-09T06:59:59;4.53;;;2.63;;
9034;SDS011;4552;43.422;24.592;2022-09-09T07:02:27;2.80;;;2.60;;
9034;SDS011;4552;43.422;24.592;2022-09-09T07:04:54;2.63;;;2.40;;
9034;SDS011;4552;43.422;24.592;2022-09-09T07:07:23;3.47;;;2.70;;
9034;SDS011;4552;43.422;24.592;2022-09-09T07:09:52;3.00;;;2.70;;
9034;SDS011;4552;43.422;24.592;2022-09-09T07:12:20;3.00;;;2.70;;
9034;SDS011;4552;43.422;24.592;2022-09-09T07:14:47;2.67;;;2.27;;
9034;SDS011;4552;43.422;24.592;2022-09-09T07:17:14;4.17;;;2.90;;
9034;SDS011;4552;43.422;24.592;2022-09-09T07:19:41;3.42;;;2.88;;
9034;SDS011;4552;43.422;24.592;2022-09-09T07:22:09;4.30;;;2.77;;
9034;SDS011;4552;43.422;24.592;2022-09-09T07:24:36;3.83;;;3.40;;
9034;SDS011;4552;43.422;24.592;2022-09-09T07:27:03;4.00;;;2.50;;
9034;SDS011;4552;43.422;24.592;2022-09-09T07:29:32;2.70;;;2.50;;
9034;SDS011;4552;43.422;24.592;2022-09-09T07:31:59;2.60;;;2.40;;
9034;SDS011;4552;43.422;24.592;2022-09-09T07:34:29;3.50;;;2.67;;
9034;SDS011;4552;43.422;24.592;2022-09-09T07:36:56;2.70;;;2.47;;
9034;SDS011;4552;43.422;24.592;2022-09-09T07:39:23;2.93;;;2.50;;
9034;SDS011;4552;43.422;24.592;2022-09-09T07:41:51;7.33;;;2.60;;
9034;SDS011;4552;43.422;24.592;2022-09-09T07:44:19;8.37;;;2.93;;
9034;SDS011;4552;43.422;24.592;2022-09-09T07:46:50;3.10;;;2.77;;
9034;SDS011;4552;43.422;24.592;2022-09-09T07:49:17;5.07;;;2.83;;
9034;SDS011;4552;43.422;24.592;2022-09-09T07:51:45;3.47;;;2.77;;
9034;SDS011;4552;43.422;24.592;2022-09-09T07:54:15;3.33;;;2.80;;
9034;SDS011;4552;43.422;24.592;2022-09-09T07:56:45;3.00;;;2.50;;
9034;SDS011;4552;43.422;24.592;2022-09-09T07:59:13;2.67;;;2.47;;
9034;SDS011;4552;43.422;24.592;2022-09-09T08:01:40;5.13;;;2.60;;
9034;SDS011;4552;43.422;24.592;2022-09-09T08:04:11;5.60;;;2.77;;
9034;SDS011;4552;43.422;24.592;2022-09-09T08:06:41;2.92;;;2.60;;
9034;SDS011;4552;43.422;24.592;2022-09-09T08:09:10;3.30;;;2.80;;
9034;SDS011;4552;43.422;24.592;2022-09-09T08:11:37;2.50;;;2.30;;
9034;SDS011;4552;43.422;24.592;2022-09-09T08:14:06;2.63;;;2.43;;
9034;SDS011;4552;43.422;24.592;2022-09-09T08:16:35;2.40;;;2.20;;
9034;SDS011;4552;43.422;24.592;2022-09-09T08:19:05;4.03;;;2.87;;
9034;SDS011;4552;43.422;24.592;2022-09-09T08:21:35;3.57;;;2.70;;
9034;SDS011;4552;43.422;24.592;2022-09-09T08:24:04;2.80;;;2.60;;
9034;SDS011;4552;43.422;24.592;2022-09-09T08:26:32;2.97;;;2.50;;
9034;SDS011;4552;43.422;24.592;2022-09-09T08:29:02;2.77;;;2.57;;
9034;SDS011;4552;43.422;24.592;2022-09-09T08:31:31;2.90;;;2.60;;
9034;SDS011;4552;43.422;24.592;2022-09-09T08:33:59;2.63;;;2.40;;
9034;SDS011;4552;43.422;24.592;2022-09-09T08:36:29;2.63;;;2.43;;
9034;SDS011;4552;43.422;24.592;2022-09-09T08:39:00;3.67;;;2.67;;
9034;SDS011;4552;43.422;24.592;2022-09-09T08:41:35;4.17;;;3.00;;
9034;SDS011;4552;43.422;24.592;2022-09-09T08:44:12;2.77;;;2.50;;
9034;SDS011;4552;43.422;24.592;2022-09-09T08:46:46;3.23;;;2.50;;
9034;SDS011;4552;43.422;24.592;2022-09-09T08:49:34;2.90;;;2.70;;
9034;SDS011;4552;43.422;24.592;2022-09-09T08:52:13;4.00;;;2.80;;
9034;SDS011;4552;43.422;24.592;2022-09-09T08:54:46;4.33;;;3.30;;
9034;SDS011;4552;43.422;24.592;2022-09-09T08:57:14;3.30;;;3.00;;
9034;SDS011;4552;43.422;24.592;2022-09-09T08:59:55;2.60;;;2.40;;
9034;SDS011;4552;43.422;24.592;2022-09-09T09:02:23;3.37;;;2.53;;
9034;SDS011;4552;43.422;24.592;2022-09-09T09:04:58;4.00;;;2.80;;
9034;SDS011;4552;43.422;24.592;2022-09-09T09:07:41;5.27;;;2.43;;
9034;SDS011;4552;43.422;24.592;2022-09-09T09:10:21;3.27;;;2.60;;
9034;SDS011;4552;43.422;24.592;2022-09-09T09:13:01;3.70;;;2.80;;
9034;SDS011;4552;43.422;24.592;2022-09-09T09:15:31;3.97;;;2.60;;
9034;SDS011;4552;43.422;24.592;2022-09-09T09:18:03;2.87;;;2.67;;
9034;SDS011;4552;43.422;24.592;2022-09-09T09:20:32;2.70;;;2.50;;
9034;SDS011;4552;43.422;24.592;2022-09-09T09:23:09;3.27;;;2.53;;
9034;SDS011;4552;43.422;24.592;2022-09-09T09:25:44;3.60;;;3.03;;
9034;SDS011;4552;43.422;24.592;2022-09-09T09:28:12;2.60;;;2.40;;
9034;SDS011;4552;43.422;24.592;2022-09-09T09:30:44;3.70;;;2.77;;
9034;SDS011;4552;43.422;24.592;2022-09-09T09:33:18;3.40;;;2.83;;
9034;SDS011;4552;43.422;24.592;2022-09-09T09:35:50;4.10;;;2.90;;
9034;SDS011;4552;43.422;24.592;2022-09-09T09:38:19;3.70;;;2.60;;
9034;SDS011;4552;43.422;24.592;2022-09-09T09:40:50;5.37;;;2.57;;
9034;SDS011;4552;43.422;24.592;2022-09-09T09:43:20;3.10;;;2.80;;
9034;SDS011;4552;43.422;24.592;2022-09-09T09:45:51;3.10;;;2.80;;
9034;SDS011;4552;43.422;24.592;2022-09-09T09:48:18;3.33;;;2.77;;
9034;SDS011;4552;43.422;24.592;2022-09-09T09:50:48;4.13;;;3.20;;
9034;SDS011;4552;43.422;24.592;2022-09-09T09:53:20;2.87;;;2.67;;
9034;SDS011;4552;43.422;24.592;2022-09-09T09:55:55;6.73;;;3.10;;
9034;SDS011;4552;43.422;24.592;2022-09-09T09:58:25;4.03;;;3.10;;
9034;SDS011;4552;43.422;24.592;2022-09-09T10:00:55;3.30;;;3.00;;
9034;SDS011;4552;43.422;24.592;2022-09-09T10:03:26;2.93;;;2.63;;
9034;SDS011;4552;43.422;24.592;2022-09-09T10:05:55;3.10;;;2.80;;
9034;SDS011;4552;43.422;24.592;2022-09-09T10:08:23;3.60;;;3.30;;
9034;SDS011;4552;43.422;24.592;2022-09-09T10:13:55;4.77;;;3.23;;
9034;SDS011;4552;43.422;24.592;2022-09-09T10:16:35;3.10;;;2.73;;
9034;SDS011;4552;43.422;24.592;2022-09-09T10:19:18;4.87;;;2.87;;
9034;SDS011;4552;43.422;24.592;2022-09-09T10:21:57;3.50;;;3.10;;
9034;SDS011;4552;43.422;24.592;2022-09-09T10:24:44;2.90;;;2.60;;
9034;SDS011;4552;43.422;24.592;2022-09-09T10:27:38;3.92;;;2.70;;
9034;SDS011;4552;43.422;24.592;2022-09-09T10:30:16;3.37;;;2.80;;
9034;SDS011;4552;43.422;24.592;2022-09-09T10:32:48;3.70;;;2.83;;
9034;SDS011;4552;43.422;24.592;2022-09-09T10:35:28;2.80;;;2.50;;
9034;SDS011;4552;43.422;24.592;2022-09-09T10:38:03;4.87;;;2.80;;
9034;SDS011;4552;43.422;24.592;2022-09-09T10:40:41;4.57;;;2.77;;
9034;SDS011;4552;43.422;24.592;2022-09-09T10:43:23;3.03;;;2.60;;
9034;SDS011;4552;43.422;24.592;2022-09-09T10:46:06;5.20;;;2.87;;
9034;SDS011;4552;43.422;24.592;2022-09-09T10:48:49;2.83;;;2.63;;
9034;SDS011;4552;43.422;24.592;2022-09-09T10:51:31;2.57;;;2.37;;
9034;SDS011;4552;43.422;24.592;2022-09-09T10:54:13;5.83;;;2.70;;
9034;SDS011;4552;43.422;24.592;2022-09-09T10:56:56;5.07;;;2.70;;
9034;SDS011;4552;43.422;24.592;2022-09-09T10:59:28;4.73;;;2.60;;
9034;SDS011;4552;43.422;24.592;2022-09-09T11:02:03;4.43;;;3.17;;
9034;SDS011;4552;43.422;24.592;2022-09-09T11:04:40;3.53;;;2.97;;
9034;SDS011;4552;43.422;24.592;2022-09-09T11:07:12;3.07;;;2.53;;
9034;SDS011;4552;43.422;24.592;2022-09-09T11:09:47;4.70;;;2.93;;
9034;SDS011;4552;43.422;24.592;2022-09-09T11:12:21;2.60;;;2.40;;
9034;SDS011;4552;43.422;24.592;2022-09-09T11:14:51;3.40;;;3.10;;
9034;SDS011;4552;43.422;24.592;2022-09-09T11:17:26;3.20;;;2.10;;
9034;SDS011;4552;43.422;24.592;2022-09-09T11:20:02;3.40;;;2.67;;
9034;SDS011;4552;43.422;24.592;2022-09-09T11:22:32;4.03;;;2.92;;
9034;SDS011;4552;43.422;24.592;2022-09-09T11:25:03;4.17;;;2.90;;
9034;SDS011;4552;43.422;24.592;2022-09-09T11:27:38;4.20;;;2.87;;
9034;SDS011;4552;43.422;24.592;2022-09-09T11:30:17;3.67;;;3.00;;
9034;SDS011;4552;43.422;24.592;2022-09-09T11:33:01;5.73;;;3.00;;
9034;SDS011;4552;43.422;24.592;2022-09-09T11:35:46;4.23;;;2.80;;
9034;SDS011;4552;43.422;24.592;2022-09-09T11:38:25;5.00;;;3.00;;
9034;SDS011;4552;43.422;24.592;2022-09-09T11:40:54;3.30;;;2.90;;
9034;SDS011;4552;43.422;24.592;2022-09-09T11:43:26;5.47;;;3.10;;
9034;SDS011;4552;43.422;24.592;2022-09-09T11:45:58;4.40;;;2.87;;
9034;SDS011;4552;43.422;24.592;2022-09-09T11:48:29;3.57;;;2.87;;
9034;SDS011;4552;43.422;24.592;2022-09-09T11:51:01;4.90;;;3.03;;
9034;SDS011;4552;43.422;24.592;2022-09-09T11:53:32;3.20;;;2.87;;
9034;SDS011;4552;43.422;24.592;2022-09-09T11:56:10;4.37;;;3.30;;
9034;SDS011;4552;43.422;24.592;2022-09-09T11:58:43;3.50;;;3.00;;
9034;SDS011;4552;43.422;24.592;2022-09-09T12:01:33;3.23;;;2.93;;
9034;SDS011;4552;43.422;24.592;2022-09-09T12:04:06;4.67;;;3.20;;
9034;SDS011;4552;43.422;24.592;2022-09-09T12:06:52;5.83;;;3.27;;
9034;SDS011;4552;43.422;24.592;2022-09-09T12:09:23;5.67;;;3.50;;
9034;SDS011;4552;43.422;24.592;2022-09-09T12:12:05;3.40;;;3.10;;
9034;SDS011;4552;43.422;24.592;2022-09-09T12:14:35;4.15;;;3.47;;
9034;SDS011;4552;43.422;24.592;2022-09-09T12:17:15;4.43;;;3.57;;
9034;SDS011;4552;43.422;24.592;2022-09-09T12:19:46;5.27;;;3.30;;
9034;SDS011;4552;43.422;24.592;2022-09-09T12:22:31;4.67;;;3.03;;
9034;SDS011;4552;43.422;24.592;2022-09-09T12:25:08;8.03;;;2.80;;
9034;SDS011;4552;43.422;24.592;2022-09-09T12:27:48;3.30;;;3.00;;
9034;SDS011;4552;43.422;24.592;2022-09-09T12:30:28;7.18;;;3.63;;
9034;SDS011;4552;43.422;24.592;2022-09-09T12:33:06;4.30;;;3.20;;
9034;SDS011;4552;43.422;24.592;2022-09-09T12:35:37;4.10;;;3.70;;
9034;SDS011;4552;43.422;24.592;2022-09-09T12:38:09;3.30;;;3.00;;
9034;SDS011;4552;43.422;24.592;2022-09-09T12:40:41;5.40;;;3.33;;
9034;SDS011;4552;43.422;24.592;2022-09-09T12:43:16;3.73;;;3.43;;
9034;SDS011;4552;43.422;24.592;2022-09-09T12:45:46;3.50;;;3.20;;
9034;SDS011;4552;43.422;24.592;2022-09-09T12:48:17;6.10;;;3.43;;
9034;SDS011;4552;43.422;24.592;2022-09-09T12:50:48;6.83;;;3.53;;
9034;SDS011;4552;43.422;24.592;2022-09-09T12:53:19;3.57;;;3.13;;
9034;SDS011;4552;43.422;24.592;2022-09-09T12:55:52;5.60;;;3.67;;
9034;SDS011;4552;43.422;24.592;2022-09-09T12:58:22;5.00;;;3.20;;
9034;SDS011;4552;43.422;24.592;2022-09-09T13:00:50;5.40;;;3.53;;
9034;SDS011;4552;43.422;24.592;2022-09-09T13:03:22;3.67;;;3.37;;
9034;SDS011;4552;43.422;24.592;2022-09-09T13:05:50;4.50;;;3.67;;
9034;SDS011;4552;43.422;24.592;2022-09-09T13:08:18;6.53;;;3.40;;
9034;SDS011;4552;43.422;24.592;2022-09-09T13:10:47;9.83;;;6.17;;
9034;SDS011;4552;43.422;24.592;2022-09-09T13:13:20;7.23;;;4.00;;
9034;SDS011;4552;43.422;24.592;2022-09-09T13:15:51;3.83;;;3.40;;
9034;SDS011;4552;43.422;24.592;2022-09-09T13:18:23;4.03;;;3.40;;
9034;SDS011;4552;43.422;24.592;2022-09-09T13:20:53;5.43;;;3.85;;
9034;SDS011;4552;43.422;24.592;2022-09-09T13:23:22;3.57;;;3.23;;
9034;SDS011;4552;43.422;24.592;2022-09-09T13:25:55;4.37;;;3.20;;
9034;SDS011;4552;43.422;24.592;2022-09-09T13:28:24;4.53;;;3.67;;
9034;SDS011;4552;43.422;24.592;2022-09-09T13:30:56;6.43;;;3.60;;
9034;SDS011;4552;43.422;24.592;2022-09-09T13:33:31;4.20;;;3.50;;
9034;SDS011;4552;43.422;24.592;2022-09-09T13:36:02;3.60;;;3.30;;
9034;SDS011;4552;43.422;24.592;2022-09-09T13:38:32;4.47;;;3.50;;
9034;SDS011;4552;43.422;24.592;2022-09-09T13:41:00;4.97;;;3.33;;
9034;SDS011;4552;43.422;24.592;2022-09-09T13:43:30;4.07;;;3.43;;
9034;SDS011;4552;43.422;24.592;2022-09-09T13:46:02;6.07;;;3.40;;
9034;SDS011;4552;43.422;24.592;2022-09-09T13:48:32;5.07;;;3.60;;
9034;SDS011;4552;43.422;24.592;2022-09-09T13:51:00;8.37;;;4.67;;
9034;SDS011;4552;43.422;24.592;2022-09-09T13:53:30;8.53;;;4.57;;
9034;SDS011;4552;43.422;24.592;2022-09-09T13:55:58;6.80;;;3.83;;
9034;SDS011;4552;43.422;24.592;2022-09-09T13:58:26;4.50;;;3.30;;
9034;SDS011;4552;43.422;24.592;2022-09-09T14:00:55;6.83;;;5.63;;
9034;SDS011;4552;43.422;24.592;2022-09-09T14:03:23;4.97;;;3.77;;
9034;SDS011;4552;43.422;24.592;2022-09-09T14:05:51;5.90;;;3.90;;
9034;SDS011;4552;43.422;24.592;2022-09-09T14:08:24;4.33;;;3.47;;
9034;SDS011;4552;43.422;24.592;2022-09-09T14:10:55;7.20;;;3.40;;
9034;SDS011;4552;43.422;24.592;2022-09-09T14:13:23;6.07;;;4.25;;
9034;SDS011;4552;43.422;24.592;2022-09-09T14:15:50;6.80;;;4.27;;
9034;SDS011;4552;43.422;24.592;2022-09-09T14:18:18;4.77;;;3.97;;
9034;SDS011;4552;43.422;24.592;2022-09-09T14:20:47;4.13;;;3.07;;
9034;SDS011;4552;43.422;24.592;2022-09-09T14:23:21;3.57;;;3.27;;
9034;SDS011;4552;43.422;24.592;2022-09-09T14:25:52;4.60;;;3.60;;
9034;SDS011;4552;43.422;24.592;2022-09-09T14:28:23;4.47;;;3.70;;
9034;SDS011;4552;43.422;24.592;2022-09-09T14:30:54;3.83;;;3.50;;
9034;SDS011;4552;43.422;24.592;2022-09-09T14:33:27;3.77;;;3.23;;
9034;SDS011;4552;43.422;24.592;2022-09-09T14:36:00;3.50;;;3.13;;
9034;SDS011;4552;43.422;24.592;2022-09-09T14:38:30;4.77;;;3.47;;
9034;SDS011;4552;43.422;24.592;2022-09-09T14:41:00;5.97;;;3.60;;
9034;SDS011;4552;43.422;24.592;2022-09-09T14:43:28;6.97;;;3.53;;
9034;SDS011;4552;43.422;24.592;2022-09-09T14:45:57;7.00;;;3.70;;
9034;SDS011;4552;43.422;24.592;2022-09-09T14:48:24;7.63;;;4.07;;
9034;SDS011;4552;43.422;24.592;2022-09-09T14:50:51;3.80;;;3.30;;
9034;SDS011;4552;43.422;24.592;2022-09-09T14:53:18;5.83;;;4.10;;
9034;SDS011;4552;43.422;24.592;2022-09-09T14:55:48;4.50;;;3.77;;
9034;SDS011;4552;43.422;24.592;2022-09-09T14:58:15;5.20;;;3.33;;
9034;SDS011;4552;43.422;24.592;2022-09-09T15:00:42;6.40;;;3.93;;
9034;SDS011;4552;43.422;24.592;2022-09-09T15:03:09;4.07;;;3.67;;
9034;SDS011;4552;43.422;24.592;2022-09-09T15:05:36;5.65;;;4.10;;
9034;SDS011;4552;43.422;24.592;2022-09-09T15:08:03;5.87;;;3.80;;
9034;SDS011;4552;43.422;24.592;2022-09-09T15:10:30;4.67;;;3.70;;
9034;SDS011;4552;43.422;24.592;2022-09-09T15:13:04;4.67;;;4.00;;
9034;SDS011;4552;43.422;24.592;2022-09-09T15:15:32;4.37;;;3.67;;
9034;SDS011;4552;43.422;24.592;2022-09-09T15:18:00;5.00;;;4.40;;
9034;SDS011;4552;43.422;24.592;2022-09-09T15:20:27;4.30;;;3.73;;
9034;SDS011;4552;43.422;24.592;2022-09-09T15:22:54;8.20;;;4.47;;
9034;SDS011;4552;43.422;24.592;2022-09-09T15:25:24;5.50;;;4.30;;
9034;SDS011;4552;43.422;24.592;2022-09-09T15:27:51;6.07;;;4.20;;
9034;SDS011;4552;43.422;24.592;2022-09-09T15:30:21;4.50;;;4.10;;
9034;SDS011;4552;43.422;24.592;2022-09-09T15:32:48;6.55;;;4.10;;
9034;SDS011;4552;43.422;24.592;2022-09-09T15:35:17;8.23;;;5.50;;